Miller Richmond — CFH8165 — position and weather

sailwx.info

Track history (hours):
 
Tides and Currents Weather Stations Pressure Air Temp Water Temp Dewpoint Dewpoint Depression Visibility Wind Speed Wind Dir Waves Ship Positions

Miller Richmond

Last reported at 2018-Jul-17 03:50 UTC. Time now 2018-Jul-17 04:12 UTC.
Position N 49°12' W 123°09'.

Length 20 m; draft 1.5 m.

Type: . MMSI: 316011603.

Date/timePositionNaut miles runAvg speedWind from/ knotsBaromVisibWave heightAir tempDewpointWater temp
2018-Jul-17 03:50N 49°12' W 123°09'3 0.1
2018-Jul-15 16:01N 49°12' W 123°04'0 0.0
2018-Jul-15 15:52N 49°12' W 123°04'0 0.0
2018-Jul-15 15:07N 49°12' W 123°04'0 0.0
2018-Jul-15 09:58N 49°12' W 123°04'0 0.0
2018-Jul-15 09:28N 49°12' W 123°04'0 0.0
2018-Jul-15 09:00N 49°12' W 123°04'0 0.0
2018-Jul-15 08:30N 49°12' W 123°04'0 0.0
2018-Jul-15 06:47N 49°12' W 123°04'0 0.0
2018-Jul-15 05:24N 49°12' W 123°04'0 0.0
2018-Jul-15 05:00N 49°12' W 123°04'0 0.0
2018-Jul-15 04:22N 49°12' W 123°04'0 0.0
2018-Jul-15 04:00N 49°12' W 123°04'0 0.0
2018-Jul-15 03:08N 49°12' W 123°04'0 0.0
2018-Jul-15 02:59N 49°12' W 123°04'0 0.0
2018-Jul-15 02:20N 49°12' W 123°04'0 0.0
2018-Jul-15 01:58N 49°12' W 123°04'0 0.0
2018-Jul-15 01:29N 49°12' W 123°04'0 0.0
2018-Jul-15 01:00N 49°12' W 123°04'0 0.0
2018-Jul-15 00:30N 49°12' W 123°04'0 0.0
2018-Jul-14 23:59N 49°12' W 123°04'0 0.0
2018-Jul-14 20:33N 49°12' W 123°04'0 0.0
2018-Jul-14 20:30N 49°12' W 123°04'0 0.0
2018-Jul-14 19:43N 49°12' W 123°04'0 0.0
2018-Jul-14 19:22N 49°12' W 123°04'0 0.0
2018-Jul-14 18:54N 49°12' W 123°04'0 0.0
2018-Jul-14 18:27N 49°12' W 123°04'0 0.0
2018-Jul-14 17:58N 49°12' W 123°04'0 0.0
2018-Jul-14 17:30N 49°12' W 123°04'0 0.0
2018-Jul-14 17:00N 49°12' W 123°04'0 0.0
2018-Jul-14 16:30N 49°12' W 123°04'0 0.0
2018-Jul-14 16:00N 49°12' W 123°04'0 0.0
2018-Jul-14 15:30N 49°12' W 123°04'0 0.0
2018-Jul-14 15:00N 49°12' W 123°04'0 0.0
2018-Jul-14 14:00N 49°12' W 123°04'0 0.0
2018-Jul-14 13:30N 49°12' W 123°04'0 0.0
2018-Jul-14 13:00N 49°12' W 123°04'0 0.0
2018-Jul-14 12:30N 49°12' W 123°04'0 0.0
2018-Jul-14 12:00N 49°12' W 123°04'0 0.0
2018-Jul-14 11:30N 49°12' W 123°04'0 0.0
2018-Jul-14 10:59N 49°12' W 123°04'0 0.0
2018-Jul-14 10:29N 49°12' W 123°04'0 0.0
2018-Jul-14 09:59N 49°12' W 123°04'0 0.0
2018-Jul-14 09:30N 49°12' W 123°04'0 0.0
2018-Jul-14 09:00N 49°12' W 123°04'0 0.0
2018-Jul-14 08:30N 49°12' W 123°04'0 0.0
2018-Jul-14 07:59N 49°12' W 123°04'0 0.0
2018-Jul-14 07:30N 49°12' W 123°04'0 0.0
2018-Jul-14 06:59N 49°12' W 123°04'0 0.0
2018-Jul-14 06:30N 49°12' W 123°04'0 0.0
2018-Jul-14 06:00N 49°12' W 123°04'0 0.0
2018-Jul-14 05:29N 49°12' W 123°04'0 0.0
2018-Jul-14 05:00N 49°12' W 123°04'0 0.0
2018-Jul-14 04:30N 49°12' W 123°04'3 6.8
2018-Jul-14 04:00N 49°12' W 123°09'4 7.5
2018-Jul-14 03:30N 49°14' W 123°14'5 9.8
2018-Jul-14 02:59N 49°17' W 123°21'3110.7
2018-Jul-14 00:04N 49°33' W 124°02'110.8
2018-Jul-13 23:57N 49°33' W 124°04'510.8
2018-Jul-13 23:28N 49°37' W 124°10'1 2.8
2018-Jul-13 22:58N 49°38' W 124°11'3 6.1
2018-Jul-13 22:29N 49°40' W 124°14'3 5.9
2018-Jul-13 22:00N 49°42' W 124°18'3 5.9
2018-Jul-13 21:31N 49°43' W 124°21'3 5.4
2018-Jul-13 21:00N 49°45' W 124°25'3 5.2
2018-Jul-13 20:31N 49°46' W 124°28'3 5.5
2018-Jul-13 20:00N 49°48' W 124°32'3 5.1
2018-Jul-13 19:30N 49°50' W 124°34'2 4.0
2018-Jul-13 19:00N 49°52' W 124°34'0 0.5
2018-Jul-13 18:31N 49°52' W 124°34'0 0.5
2018-Jul-13 18:00N 49°52' W 124°33'0 0.0
2018-Jul-13 17:30N 49°52' W 124°33'0 0.0
2018-Jul-13 17:01N 49°52' W 124°33'0 0.0
2018-Jul-13 16:31N 49°52' W 124°33'0 0.0
2018-Jul-13 15:59N 49°52' W 124°33'1 2.4
2018-Jul-13 15:30N 49°51' W 124°33'3 6.7
2018-Jul-13 15:01N 49°48' W 124°32'7 7.1
2018-Jul-13 14:00N 49°44' W 124°22'3 6.4
2018-Jul-13 13:31N 49°42' W 124°19'4 6.8
2018-Jul-13 12:59N 49°40' W 124°14'4 6.8
2018-Jul-13 12:27N 49°37' W 124°10'3 7.2
2018-Jul-13 12:00N 49°35' W 124°06'4 7.1
2018-Jul-13 11:30N 49°33' W 124°02'20 7.0
2018-Jul-13 08:41N 49°23' W 123°36'2 7.2
2018-Jul-13 08:20N 49°22' W 123°32'3 7.0
2018-Jul-13 07:52N 49°21' W 123°28'3 7.2
2018-Jul-13 07:29N 49°19' W 123°24'4 7.3
2018-Jul-13 07:00N 49°17' W 123°19'5 7.6
2018-Jul-13 06:22N 49°14' W 123°14'3 7.7
2018-Jul-13 06:00N 49°13' W 123°10'4 7.5
2018-Jul-13 05:30N 49°12' W 123°05'4 0.3
2018-Jul-12 17:25N 49°13' W 123°10'2 3.9
2018-Jul-12 16:57N 49°12' W 123°08'2 4.8
2018-Jul-12 16:27N 49°13' W 123°11'2 3.9
2018-Jul-12 16:00N 49°14' W 123°13'4 4.3
2018-Jul-12 14:59N 49°16' W 123°19'16 2.3
2018-Jul-12 08:11N 49°30' W 123°29'1 2.6
2018-Jul-12 07:57N 49°30' W 123°29'3 7.2
2018-Jul-12 07:30N 49°27' W 123°27'5 6.0
2018-Jul-12 06:41N 49°22' W 123°26'3 6.9
2018-Jul-12 06:18N 49°19' W 123°25'2 8.3
2018-Jul-12 06:00N 49°18' W 123°21'4 7.2
2018-Jul-12 05:30N 49°16' W 123°17'4 8.7
2018-Jul-12 05:00N 49°13' W 123°12'4 8.0
2018-Jul-12 04:30N 49°12' W 123°06'1 2.5
2018-Jul-12 04:00N 49°12' W 123°04'0 0.2
2018-Jul-12 03:30N 49°12' W 123°04'0 0.2
2018-Jul-12 02:58N 49°12' W 123°04'0 0.2
2018-Jul-12 02:29N 49°12' W 123°04'0 0.0
2018-Jul-12 02:00N 49°12' W 123°04'0 0.0
2018-Jul-12 01:31N 49°12' W 123°04'3 5.2
2018-Jul-12 01:00N 49°12' W 123°08'4 8.3
2018-Jul-12 00:30N 49°14' W 123°14'4 8.1
2018-Jul-12 00:00N 49°16' W 123°19'5 9.1
2018-Jul-11 23:29N 49°18' W 123°25'27 8.0
2018-Jul-11 20:08N 49°30' W 124°02'1 8.6
2018-Jul-11 19:59N 49°31' W 124°03'7 8.5
2018-Jul-11 19:12N 49°36' W 124°10'3 8.6
2018-Jul-11 18:48N 49°39' W 124°14'3 8.7
2018-Jul-11 18:28N 49°41' W 124°17'4 9.3
2018-Jul-11 18:00N 49°43' W 124°22'4 8.9
2018-Jul-11 17:30N 49°46' W 124°28'4 8.9
2018-Jul-11 17:00N 49°49' W 124°33'3 6.4
2018-Jul-11 16:31N 49°52' W 124°33'0 0.0
2018-Jul-11 15:56N 49°52' W 124°33'0 0.0
2018-Jul-11 15:30N 49°52' W 124°33'0 0.0
2018-Jul-11 14:54N 49°52' W 124°33'0 0.0
2018-Jul-11 14:30N 49°52' W 124°33'0 0.0
2018-Jul-11 13:52N 49°52' W 124°33'0 0.0
2018-Jul-11 13:30N 49°52' W 124°33'0 0.0
2018-Jul-11 13:01N 49°52' W 124°33'1 1.2
2018-Jul-11 12:31N 49°51' W 124°33'3 6.5
2018-Jul-11 12:00N 49°48' W 124°32'4 7.9
2018-Jul-11 11:30N 49°46' W 124°27'4 7.5
2018-Jul-11 11:00N 49°44' W 124°22'4 7.9
2018-Jul-11 10:27N 49°41' W 124°17'4 8.2
2018-Jul-11 10:00N 49°39' W 124°13'4 8.1
2018-Jul-11 09:30N 49°36' W 124°08'4 7.9
2018-Jul-11 09:00N 49°34' W 124°03'21 8.5
2018-Jul-11 06:33N 49°23' W 123°36'1 9.2
2018-Jul-11 06:27N 49°22' W 123°35'4 9.0
2018-Jul-11 05:58N 49°21' W 123°29'4 7.7
2018-Jul-11 05:28N 49°19' W 123°24'4 7.4
2018-Jul-11 05:00N 49°17' W 123°19'4 8.4
2018-Jul-11 04:30N 49°14' W 123°14'4 8.4
2018-Jul-11 03:59N 49°12' W 123°08'3 6.6
2018-Jul-11 03:30N 49°12' W 123°04'0 0.5
2018-Jul-11 03:00N 49°12' W 123°04'0 0.2
2018-Jul-11 02:30N 49°12' W 123°04'2 3.2
2018-Jul-11 02:00N 49°12' W 123°06'3 6.6
2018-Jul-11 01:30N 49°13' W 123°11'4 7.3
2018-Jul-11 00:54N 49°15' W 123°17'3 7.0
2018-Jul-11 00:30N 49°17' W 123°20'31 7.7
2018-Jul-10 20:27N 49°33' W 124°02'4 8.5
2018-Jul-10 19:58N 49°35' W 124°06'5 8.5
2018-Jul-10 19:27N 49°38' W 124°12'4 8.6
2018-Jul-10 19:01N 49°41' W 124°16'4 8.5
2018-Jul-10 18:31N 49°43' W 124°21'4 8.6
2018-Jul-10 18:00N 49°45' W 124°27'4 8.6
2018-Jul-10 17:30N 49°48' W 124°32'4 6.6
2018-Jul-10 16:56N 49°52' W 124°33'4 8.5
2018-Jul-10 16:30N 49°49' W 124°37'5 9.8
2018-Jul-10 16:00N 49°44' W 124°39'5 4.8
2018-Jul-10 15:04N 49°41' W 124°34'3 5.1
2018-Jul-10 14:24N 49°43' W 124°38'410.5
2018-Jul-10 14:01N 49°47' W 124°39'510.5
2018-Jul-10 13:30N 49°51' W 124°33'1 1.0
2018-Jul-10 13:00N 49°52' W 124°33'3 5.7
2018-Jul-10 12:31N 49°49' W 124°32'3 6.8
2018-Jul-10 12:01N 49°46' W 124°29'4 7.5
2018-Jul-10 11:30N 49°45' W 124°24'4 8.0
2018-Jul-10 10:59N 49°42' W 124°19'4 8.0
2018-Jul-10 10:30N 49°39' W 124°15'4 8.0
2018-Jul-10 09:59N 49°37' W 124°10'4 8.0
2018-Jul-10 09:30N 49°34' W 124°05'28 7.9
2018-Jul-10 06:00N 49°20' W 123°29'4 7.6
2018-Jul-10 05:30N 49°18' W 123°23'4 7.7
2018-Jul-10 05:00N 49°16' W 123°18'4 8.2
2018-Jul-10 04:30N 49°14' W 123°13'4 7.9
2018-Jul-10 04:00N 49°12' W 123°08'3 5.2
2018-Jul-10 03:30N 49°12' W 123°04'0 0.0
2018-Jul-10 02:59N 49°12' W 123°04'0 0.0
2018-Jul-10 02:30N 49°12' W 123°04'0 0.4
2018-Jul-10 02:00N 49°12' W 123°04'0 0.3
2018-Jul-10 01:30N 49°12' W 123°04'0 0.0
2018-Jul-10 00:59N 49°12' W 123°04'0 0.0
2018-Jul-10 00:30N 49°12' W 123°04'0 0.0
2018-Jul-10 00:00N 49°12' W 123°04'0 0.0
2018-Jul-09 23:30N 49°12' W 123°04'0 0.0
2018-Jul-09 23:00N 49°12' W 123°04'0 0.0
2018-Jul-09 22:29N 49°12' W 123°04'0 0.0
2018-Jul-09 22:00N 49°12' W 123°04'0 0.0
2018-Jul-09 21:30N 49°12' W 123°04'0 0.0
2018-Jul-09 21:00N 49°12' W 123°04'0 0.0
2018-Jul-09 20:30N 49°12' W 123°04'0 0.0
2018-Jul-09 20:00N 49°12' W 123°04'0 0.0
2018-Jul-09 19:30N 49°12' W 123°04'0 0.0
2018-Jul-09 19:00N 49°12' W 123°04'0 0.0
2018-Jul-09 18:28N 49°12' W 123°04'0 0.0
2018-Jul-09 14:48N 49°12' W 123°04'0 0.0
2018-Jul-09 14:30N 49°12' W 123°04'0 0.0
2018-Jul-09 14:00N 49°12' W 123°04'0 0.0
2018-Jul-09 13:30N 49°12' W 123°04'0 0.0
2018-Jul-09 13:00N 49°12' W 123°04'0 0.0
2018-Jul-09 12:30N 49°12' W 123°04'0 0.0
2018-Jul-09 11:58N 49°12' W 123°04'0 0.0
2018-Jul-09 11:30N 49°12' W 123°04'0 0.0
2018-Jul-09 11:00N 49°12' W 123°04'0 0.0
2018-Jul-09 10:30N 49°12' W 123°04'0 0.0
2018-Jul-09 10:00N 49°12' W 123°04'0 0.0
2018-Jul-09 09:31N 49°12' W 123°04'0 0.0
2018-Jul-09 09:00N 49°12' W 123°04'0 0.0
2018-Jul-09 08:30N 49°12' W 123°04'0 0.0
2018-Jul-09 08:01N 49°12' W 123°04'0 0.0
2018-Jul-09 03:20N 49°12' W 123°04'0 0.0
2018-Jul-09 03:00N 49°12' W 123°04'0 0.0
2018-Jul-09 02:30N 49°12' W 123°04'0 0.0
2018-Jul-09 02:00N 49°12' W 123°04'0 0.0
2018-Jul-09 01:30N 49°12' W 123°04'0 0.0
2018-Jul-09 01:00N 49°12' W 123°04'0 0.0
2018-Jul-09 00:30N 49°12' W 123°04'0 0.0
2018-Jul-09 00:00N 49°12' W 123°04'0 0.0
2018-Jul-08 23:30N 49°12' W 123°04'4 7.9
2018-Jul-08 22:59N 49°11' W 122°58'3 6.6
2018-Jul-08 22:29N 49°13' W 122°53'3 6.9
2018-Jul-08 22:00N 49°13' W 122°48'5 9.9
2018-Jul-08 21:30N 49°12' W 122°41'  
Track history (hours):
 
Tides and Currents Weather Stations Pressure Air Temp Water Temp Dewpoint Dewpoint Depression Visibility Wind Speed Wind Dir Waves Ship Positions

Miller Richmond

Last reported at 2018-Jul-17 03:50 UTC. Time now 2018-Jul-17 04:12 UTC.
Position N 49°12' W 123°09'.

Length 20 m; draft 1.5 m.

Type: . MMSI: 316011603.

Date/timePositionNaut miles runAvg speedWind from/ knotsBaromVisibWave heightAir tempDewpointWater temp
2018-Jul-17 03:50N 49°12' W 123°09'3 0.1
2018-Jul-15 16:01N 49°12' W 123°04'0 0.0
2018-Jul-15 15:52N 49°12' W 123°04'0 0.0
2018-Jul-15 15:07N 49°12' W 123°04'0 0.0
2018-Jul-15 09:58N 49°12' W 123°04'0 0.0
2018-Jul-15 09:28N 49°12' W 123°04'0 0.0
2018-Jul-15 09:00N 49°12' W 123°04'0 0.0
2018-Jul-15 08:30N 49°12' W 123°04'0 0.0
2018-Jul-15 06:47N 49°12' W 123°04'0 0.0
2018-Jul-15 05:24N 49°12' W 123°04'0 0.0
2018-Jul-15 05:00N 49°12' W 123°04'0 0.0
2018-Jul-15 04:22N 49°12' W 123°04'0 0.0
2018-Jul-15 04:00N 49°12' W 123°04'0 0.0
2018-Jul-15 03:08N 49°12' W 123°04'0 0.0
2018-Jul-15 02:59N 49°12' W 123°04'0 0.0
2018-Jul-15 02:20N 49°12' W 123°04'0 0.0
2018-Jul-15 01:58N 49°12' W 123°04'0 0.0
2018-Jul-15 01:29N 49°12' W 123°04'0 0.0
2018-Jul-15 01:00N 49°12' W 123°04'0 0.0
2018-Jul-15 00:30N 49°12' W 123°04'0 0.0
2018-Jul-14 23:59N 49°12' W 123°04'0 0.0
2018-Jul-14 20:33N 49°12' W 123°04'0 0.0
2018-Jul-14 20:30N 49°12' W 123°04'0 0.0
2018-Jul-14 19:43N 49°12' W 123°04'0 0.0
2018-Jul-14 19:22N 49°12' W 123°04'0 0.0
2018-Jul-14 18:54N 49°12' W 123°04'0 0.0
2018-Jul-14 18:27N 49°12' W 123°04'0 0.0
2018-Jul-14 17:58N 49°12' W 123°04'0 0.0
2018-Jul-14 17:30N 49°12' W 123°04'0 0.0
2018-Jul-14 17:00N 49°12' W 123°04'0 0.0
2018-Jul-14 16:30N 49°12' W 123°04'0 0.0
2018-Jul-14 16:00N 49°12' W 123°04'0 0.0
2018-Jul-14 15:30N 49°12' W 123°04'0 0.0
2018-Jul-14 15:00N 49°12' W 123°04'0 0.0
2018-Jul-14 14:00N 49°12' W 123°04'0 0.0
2018-Jul-14 13:30N 49°12' W 123°04'0 0.0
2018-Jul-14 13:00N 49°12' W 123°04'0 0.0
2018-Jul-14 12:30N 49°12' W 123°04'0 0.0
2018-Jul-14 12:00N 49°12' W 123°04'0 0.0
2018-Jul-14 11:30N 49°12' W 123°04'0 0.0
2018-Jul-14 10:59N 49°12' W 123°04'0 0.0
2018-Jul-14 10:29N 49°12' W 123°04'0 0.0
2018-Jul-14 09:59N 49°12' W 123°04'0 0.0
2018-Jul-14 09:30N 49°12' W 123°04'0 0.0
2018-Jul-14 09:00N 49°12' W 123°04'0 0.0
2018-Jul-14 08:30N 49°12' W 123°04'0 0.0
2018-Jul-14 07:59N 49°12' W 123°04'0 0.0
2018-Jul-14 07:30N 49°12' W 123°04'0 0.0
2018-Jul-14 06:59N 49°12' W 123°04'0 0.0
2018-Jul-14 06:30N 49°12' W 123°04'0 0.0
2018-Jul-14 06:00N 49°12' W 123°04'0 0.0
2018-Jul-14 05:29N 49°12' W 123°04'0 0.0
2018-Jul-14 05:00N 49°12' W 123°04'0 0.0
2018-Jul-14 04:30N 49°12' W 123°04'3 6.8
2018-Jul-14 04:00N 49°12' W 123°09'4 7.5
2018-Jul-14 03:30N 49°14' W 123°14'5 9.8
2018-Jul-14 02:59N 49°17' W 123°21'3110.7
2018-Jul-14 00:04N 49°33' W 124°02'110.8
2018-Jul-13 23:57N 49°33' W 124°04'510.8
2018-Jul-13 23:28N 49°37' W 124°10'1 2.8
2018-Jul-13 22:58N 49°38' W 124°11'3 6.1
2018-Jul-13 22:29N 49°40' W 124°14'3 5.9
2018-Jul-13 22:00N 49°42' W 124°18'3 5.9
2018-Jul-13 21:31N 49°43' W 124°21'3 5.4
2018-Jul-13 21:00N 49°45' W 124°25'3 5.2
2018-Jul-13 20:31N 49°46' W 124°28'3 5.5
2018-Jul-13 20:00N 49°48' W 124°32'3 5.1
2018-Jul-13 19:30N 49°50' W 124°34'2 4.0
2018-Jul-13 19:00N 49°52' W 124°34'0 0.5
2018-Jul-13 18:31N 49°52' W 124°34'0 0.5
2018-Jul-13 18:00N 49°52' W 124°33'0 0.0
2018-Jul-13 17:30N 49°52' W 124°33'0 0.0
2018-Jul-13 17:01N 49°52' W 124°33'0 0.0
2018-Jul-13 16:31N 49°52' W 124°33'0 0.0
2018-Jul-13 15:59N 49°52' W 124°33'1 2.4
2018-Jul-13 15:30N 49°51' W 124°33'3 6.7
2018-Jul-13 15:01N 49°48' W 124°32'7 7.1
2018-Jul-13 14:00N 49°44' W 124°22'3 6.4
2018-Jul-13 13:31N 49°42' W 124°19'4 6.8
2018-Jul-13 12:59N 49°40' W 124°14'4 6.8
2018-Jul-13 12:27N 49°37' W 124°10'3 7.2
2018-Jul-13 12:00N 49°35' W 124°06'4 7.1
2018-Jul-13 11:30N 49°33' W 124°02'20 7.0
2018-Jul-13 08:41N 49°23' W 123°36'2 7.2
2018-Jul-13 08:20N 49°22' W 123°32'3 7.0
2018-Jul-13 07:52N 49°21' W 123°28'3 7.2
2018-Jul-13 07:29N 49°19' W 123°24'4 7.3
2018-Jul-13 07:00N 49°17' W 123°19'5 7.6
2018-Jul-13 06:22N 49°14' W 123°14'3 7.7
2018-Jul-13 06:00N 49°13' W 123°10'4 7.5
2018-Jul-13 05:30N 49°12' W 123°05'4 0.3
2018-Jul-12 17:25N 49°13' W 123°10'2 3.9
2018-Jul-12 16:57N 49°12' W 123°08'2 4.8
2018-Jul-12 16:27N 49°13' W 123°11'2 3.9
2018-Jul-12 16:00N 49°14' W 123°13'4 4.3
2018-Jul-12 14:59N 49°16' W 123°19'16 2.3
2018-Jul-12 08:11N 49°30' W 123°29'1 2.6
2018-Jul-12 07:57N 49°30' W 123°29'3 7.2
2018-Jul-12 07:30N 49°27' W 123°27'5 6.0
2018-Jul-12 06:41N 49°22' W 123°26'3 6.9
2018-Jul-12 06:18N 49°19' W 123°25'2 8.3
2018-Jul-12 06:00N 49°18' W 123°21'4 7.2
2018-Jul-12 05:30N 49°16' W 123°17'4 8.7
2018-Jul-12 05:00N 49°13' W 123°12'4 8.0
2018-Jul-12 04:30N 49°12' W 123°06'1 2.5
2018-Jul-12 04:00N 49°12' W 123°04'0 0.2
2018-Jul-12 03:30N 49°12' W 123°04'0 0.2
2018-Jul-12 02:58N 49°12' W 123°04'0 0.2
2018-Jul-12 02:29N 49°12' W 123°04'0 0.0
2018-Jul-12 02:00N 49°12' W 123°04'0 0.0
2018-Jul-12 01:31N 49°12' W 123°04'3 5.2
2018-Jul-12 01:00N 49°12' W 123°08'4 8.3
2018-Jul-12 00:30N 49°14' W 123°14'4 8.1
2018-Jul-12 00:00N 49°16' W 123°19'5 9.1
2018-Jul-11 23:29N 49°18' W 123°25'27 8.0
2018-Jul-11 20:08N 49°30' W 124°02'1 8.6
2018-Jul-11 19:59N 49°31' W 124°03'7 8.5
2018-Jul-11 19:12N 49°36' W 124°10'3 8.6
2018-Jul-11 18:48N 49°39' W 124°14'3 8.7
2018-Jul-11 18:28N 49°41' W 124°17'4 9.3
2018-Jul-11 18:00N 49°43' W 124°22'4 8.9
2018-Jul-11 17:30N 49°46' W 124°28'4 8.9
2018-Jul-11 17:00N 49°49' W 124°33'3 6.4
2018-Jul-11 16:31N 49°52' W 124°33'0 0.0
2018-Jul-11 15:56N 49°52' W 124°33'0 0.0
2018-Jul-11 15:30N 49°52' W 124°33'0 0.0
2018-Jul-11 14:54N 49°52' W 124°33'0 0.0
2018-Jul-11 14:30N 49°52' W 124°33'0 0.0
2018-Jul-11 13:52N 49°52' W 124°33'0 0.0
2018-Jul-11 13:30N 49°52' W 124°33'0 0.0
2018-Jul-11 13:01N 49°52' W 124°33'1 1.2
2018-Jul-11 12:31N 49°51' W 124°33'3 6.5
2018-Jul-11 12:00N 49°48' W 124°32'4 7.9
2018-Jul-11 11:30N 49°46' W 124°27'4 7.5
2018-Jul-11 11:00N 49°44' W 124°22'4 7.9
2018-Jul-11 10:27N 49°41' W 124°17'4 8.2
2018-Jul-11 10:00N 49°39' W 124°13'4 8.1
2018-Jul-11 09:30N 49°36' W 124°08'4 7.9
2018-Jul-11 09:00N 49°34' W 124°03'21 8.5
2018-Jul-11 06:33N 49°23' W 123°36'1 9.2
2018-Jul-11 06:27N 49°22' W 123°35'4 9.0
2018-Jul-11 05:58N 49°21' W 123°29'4 7.7
2018-Jul-11 05:28N 49°19' W 123°24'4 7.4
2018-Jul-11 05:00N 49°17' W 123°19'4 8.4
2018-Jul-11 04:30N 49°14' W 123°14'4 8.4
2018-Jul-11 03:59N 49°12' W 123°08'3 6.6
2018-Jul-11 03:30N 49°12' W 123°04'0 0.5
2018-Jul-11 03:00N 49°12' W 123°04'0 0.2
2018-Jul-11 02:30N 49°12' W 123°04'2 3.2
2018-Jul-11 02:00N 49°12' W 123°06'3 6.6
2018-Jul-11 01:30N 49°13' W 123°11'4 7.3
2018-Jul-11 00:54N 49°15' W 123°17'3 7.0
2018-Jul-11 00:30N 49°17' W 123°20'31 7.7
2018-Jul-10 20:27N 49°33' W 124°02'4 8.5
2018-Jul-10 19:58N 49°35' W 124°06'5 8.5
2018-Jul-10 19:27N 49°38' W 124°12'4 8.6
2018-Jul-10 19:01N 49°41' W 124°16'4 8.5
2018-Jul-10 18:31N 49°43' W 124°21'4 8.6
2018-Jul-10 18:00N 49°45' W 124°27'4 8.6
2018-Jul-10 17:30N 49°48' W 124°32'4 6.6
2018-Jul-10 16:56N 49°52' W 124°33'4 8.5
2018-Jul-10 16:30N 49°49' W 124°37'5 9.8
2018-Jul-10 16:00N 49°44' W 124°39'5 4.8
2018-Jul-10 15:04N 49°41' W 124°34'3 5.1
2018-Jul-10 14:24N 49°43' W 124°38'410.5
2018-Jul-10 14:01N 49°47' W 124°39'510.5
2018-Jul-10 13:30N 49°51' W 124°33'1 1.0
2018-Jul-10 13:00N 49°52' W 124°33'3 5.7
2018-Jul-10 12:31N 49°49' W 124°32'3 6.8
2018-Jul-10 12:01N 49°46' W 124°29'4 7.5
2018-Jul-10 11:30N 49°45' W 124°24'4 8.0
2018-Jul-10 10:59N 49°42' W 124°19'4 8.0
2018-Jul-10 10:30N 49°39' W 124°15'4 8.0
2018-Jul-10 09:59N 49°37' W 124°10'4 8.0
2018-Jul-10 09:30N 49°34' W 124°05'28 7.9
2018-Jul-10 06:00N 49°20' W 123°29'4 7.6
2018-Jul-10 05:30N 49°18' W 123°23'4 7.7
2018-Jul-10 05:00N 49°16' W 123°18'4 8.2
2018-Jul-10 04:30N 49°14' W 123°13'4 7.9
2018-Jul-10 04:00N 49°12' W 123°08'3 5.2
2018-Jul-10 03:30N 49°12' W 123°04'0 0.0
2018-Jul-10 02:59N 49°12' W 123°04'0 0.0
2018-Jul-10 02:30N 49°12' W 123°04'0 0.4
2018-Jul-10 02:00N 49°12' W 123°04'0 0.3
2018-Jul-10 01:30N 49°12' W 123°04'0 0.0
2018-Jul-10 00:59N 49°12' W 123°04'0 0.0
2018-Jul-10 00:30N 49°12' W 123°04'0 0.0
2018-Jul-10 00:00N 49°12' W 123°04'0 0.0
2018-Jul-09 23:30N 49°12' W 123°04'0 0.0
2018-Jul-09 23:00N 49°12' W 123°04'0 0.0
2018-Jul-09 22:29N 49°12' W 123°04'0 0.0
2018-Jul-09 22:00N 49°12' W 123°04'0 0.0
2018-Jul-09 21:30N 49°12' W 123°04'0 0.0
2018-Jul-09 21:00N 49°12' W 123°04'0 0.0
2018-Jul-09 20:30N 49°12' W 123°04'0 0.0
2018-Jul-09 20:00N 49°12' W 123°04'0 0.0
2018-Jul-09 19:30N 49°12' W 123°04'0 0.0
2018-Jul-09 19:00N 49°12' W 123°04'0 0.0
2018-Jul-09 18:28N 49°12' W 123°04'0 0.0
2018-Jul-09 14:48N 49°12' W 123°04'0 0.0
2018-Jul-09 14:30N 49°12' W 123°04'0 0.0
2018-Jul-09 14:00N 49°12' W 123°04'0 0.0
2018-Jul-09 13:30N 49°12' W 123°04'0 0.0
2018-Jul-09 13:00N 49°12' W 123°04'0 0.0
2018-Jul-09 12:30N 49°12' W 123°04'0 0.0
2018-Jul-09 11:58N 49°12' W 123°04'0 0.0
2018-Jul-09 11:30N 49°12' W 123°04'0 0.0
2018-Jul-09 11:00N 49°12' W 123°04'0 0.0
2018-Jul-09 10:30N 49°12' W 123°04'0 0.0
2018-Jul-09 10:00N 49°12' W 123°04'0 0.0
2018-Jul-09 09:31N 49°12' W 123°04'0 0.0
2018-Jul-09 09:00N 49°12' W 123°04'0 0.0
2018-Jul-09 08:30N 49°12' W 123°04'0 0.0
2018-Jul-09 08:01N 49°12' W 123°04'0 0.0
2018-Jul-09 03:20N 49°12' W 123°04'0 0.0
2018-Jul-09 03:00N 49°12' W 123°04'0 0.0
2018-Jul-09 02:30N 49°12' W 123°04'0 0.0
2018-Jul-09 02:00N 49°12' W 123°04'0 0.0
2018-Jul-09 01:30N 49°12' W 123°04'0 0.0
2018-Jul-09 01:00N 49°12' W 123°04'0 0.0
2018-Jul-09 00:30N 49°12' W 123°04'0 0.0
2018-Jul-09 00:00N 49°12' W 123°04'0 0.0
2018-Jul-08 23:30N 49°12' W 123°04'4 7.9
2018-Jul-08 22:59N 49°11' W 122°58'3 6.6
2018-Jul-08 22:29N 49°13' W 122°53'3 6.9
2018-Jul-08 22:00N 49°13' W 122°48'5 9.9
2018-Jul-08 21:30N 49°12' W 122°41'  

Dump ship's entire track history